createdAt,value
2023-05-06T00:02:10.944Z,15.85
2023-05-06T00:04:38.802Z,14.98
2023-05-06T00:07:07.017Z,16.20
2023-05-06T00:09:34.937Z,15.98
2023-05-06T00:12:02.884Z,15.85
2023-05-06T00:14:32.333Z,14.80
2023-05-06T00:17:00.220Z,14.07
2023-05-06T00:19:28.707Z,16.20
2023-05-06T00:21:57.329Z,15.65
2023-05-06T00:24:25.225Z,14.15
2023-05-06T00:26:53.645Z,13.55
2023-05-06T00:29:21.961Z,13.07
2023-05-06T00:31:51.258Z,12.60
2023-05-06T00:34:19.182Z,12.88
2023-05-06T00:36:47.119Z,12.02
2023-05-06T00:39:15.131Z,11.93
2023-05-06T00:41:43.072Z,12.10
2023-05-06T00:44:10.947Z,11.73
2023-05-06T00:46:39.111Z,11.63
2023-05-06T00:49:08.338Z,12.70
2023-05-06T00:51:36.337Z,13.15
2023-05-06T00:54:04.722Z,11.60
2023-05-06T00:56:32.918Z,12.05
2023-05-06T00:59:00.898Z,12.32
2023-05-06T01:01:30.886Z,13.68
2023-05-06T01:03:59.011Z,13.00
2023-05-06T01:06:30.969Z,13.52
2023-05-06T01:09:02.262Z,14.13
2023-05-06T01:11:35.304Z,15.60
2023-05-06T01:14:05.721Z,15.27
2023-05-06T01:16:36.547Z,14.95
2023-05-06T01:19:07.117Z,14.88
2023-05-06T01:21:36.974Z,14.55
2023-05-06T01:24:06.713Z,15.52
2023-05-06T01:26:34.637Z,13.38
2023-05-06T01:29:02.564Z,13.15
2023-05-06T01:31:33.450Z,13.48
2023-05-06T01:34:06.621Z,14.25
2023-05-06T01:36:37.655Z,13.00
2023-05-06T01:39:10.726Z,14.38
2023-05-06T01:41:40.047Z,12.88
2023-05-06T01:44:08.786Z,13.02
2023-05-06T01:46:36.842Z,12.82
2023-05-06T01:49:06.304Z,12.98
2023-05-06T01:51:34.866Z,13.15
2023-05-06T01:54:03.114Z,15.23
2023-05-06T01:56:32.313Z,16.73
2023-05-06T01:59:00.377Z,16.50
2023-05-06T02:01:28.422Z,15.95
2023-05-06T02:03:56.502Z,15.90
2023-05-06T02:06:24.706Z,15.15
2023-05-06T02:08:53.015Z,14.88
2023-05-06T02:11:24.249Z,14.55
2023-05-06T02:13:56.159Z,14.50
2023-05-06T02:16:24.094Z,14.18
2023-05-06T02:18:52.404Z,14.90
2023-05-06T02:21:20.504Z,14.68
2023-05-06T02:23:48.366Z,14.18
2023-05-06T02:26:16.549Z,14.85
2023-05-06T02:28:45.775Z,13.65
2023-05-06T02:31:15.903Z,14.52
2023-05-06T02:33:43.813Z,15.50
2023-05-06T02:36:12.179Z,16.10
2023-05-06T02:38:40.029Z,17.38
2023-05-06T02:41:07.878Z,19.00
2023-05-06T02:43:35.708Z,17.40
2023-05-06T02:46:25.993Z,18.02
2023-05-06T02:49:13.047Z,18.08
2023-05-06T02:51:40.851Z,17.20
2023-05-06T02:54:08.877Z,17.58
2023-05-06T02:56:37.312Z,17.45
2023-05-06T02:59:06.802Z,18.88
2023-05-06T03:01:36.423Z,20.27
2023-05-06T03:04:05.165Z,19.13
2023-05-06T03:06:33.499Z,19.25
2023-05-06T03:09:01.353Z,17.95
2023-05-06T03:11:31.525Z,18.08
2023-05-06T03:14:02.656Z,18.00
2023-05-06T03:16:31.120Z,18.30
2023-05-06T03:19:03.709Z,18.45
2023-05-06T03:21:32.696Z,19.15
2023-05-06T03:24:01.021Z,19.50
2023-05-06T03:26:30.685Z,19.67
2023-05-06T03:28:59.150Z,18.52
2023-05-06T03:31:27.294Z,19.40
2023-05-06T03:33:56.402Z,19.95
2023-05-06T03:36:27.943Z,19.50
2023-05-06T03:38:56.614Z,20.05
2023-05-06T03:41:25.800Z,20.08
2023-05-06T03:43:55.793Z,19.48
2023-05-06T03:46:26.896Z,20.52
2023-05-06T03:48:55.581Z,20.52
2023-05-06T03:51:24.276Z,21.92
2023-05-06T03:53:54.851Z,20.25
2023-05-06T03:56:23.212Z,19.65
2023-05-06T03:58:54.204Z,20.45
2023-05-06T04:01:24.094Z,20.58
2023-05-06T04:03:52.196Z,19.65
2023-05-06T04:06:20.150Z,20.08
2023-05-06T04:08:48.353Z,19.52
2023-05-06T04:11:19.503Z,18.25
2023-05-06T04:13:48.906Z,20.02
2023-05-06T04:16:20.365Z,19.25
2023-05-06T04:18:49.429Z,20.10
2023-05-06T04:21:18.475Z,23.25
2023-05-06T04:26:25.810Z,20.83
2023-05-06T04:28:54.229Z,21.80
2023-05-06T04:31:23.508Z,22.35
2023-05-06T04:33:53.623Z,20.23
2023-05-06T04:36:24.885Z,20.40
2023-05-06T04:39:10.586Z,18.75
2023-05-06T04:41:41.260Z,18.73
2023-05-06T04:44:11.169Z,19.73
2023-05-06T04:46:41.876Z,19.30
2023-05-06T04:49:12.609Z,20.83
2023-05-06T04:51:41.765Z,19.63
2023-05-06T04:54:09.988Z,16.60
2023-05-06T04:56:38.527Z,15.73
2023-05-06T04:59:09.117Z,16.05
2023-05-06T05:01:37.102Z,15.13
2023-05-06T05:04:05.093Z,13.98
2023-05-06T05:06:33.769Z,14.48
2023-05-06T05:09:01.940Z,14.25
2023-05-06T05:11:30.777Z,15.20
2023-05-06T05:14:01.829Z,16.42
2023-05-06T05:16:32.808Z,15.27
2023-05-06T05:19:03.770Z,14.57
2023-05-06T05:21:33.615Z,15.23
2023-05-06T05:24:01.840Z,16.30
2023-05-06T05:26:30.303Z,16.27
2023-05-06T05:29:00.151Z,16.80
2023-05-06T05:31:29.286Z,16.80
2023-05-06T05:33:59.052Z,15.10
2023-05-06T05:36:28.286Z,15.70
2023-05-06T05:38:57.861Z,15.32
2023-05-06T05:41:27.815Z,16.25
2023-05-06T05:43:56.516Z,15.75
2023-05-06T05:46:24.900Z,15.43
2023-05-06T05:48:53.269Z,14.25
2023-05-06T05:51:25.111Z,13.98
2023-05-06T05:53:54.298Z,14.00
2023-05-06T05:56:24.182Z,13.40
2023-05-06T05:58:52.310Z,13.40
2023-05-06T06:01:21.054Z,11.73
2023-05-06T06:03:49.491Z,12.13
2023-05-06T06:06:17.667Z,14.55
2023-05-06T06:08:47.869Z,13.57
2023-05-06T06:11:15.948Z,13.70
2023-05-06T06:13:43.828Z,11.98
2023-05-06T06:16:11.873Z,13.07
2023-05-06T06:18:39.837Z,14.05
2023-05-06T06:21:09.948Z,15.00
2023-05-06T06:23:38.484Z,14.43
2023-05-06T06:26:09.942Z,14.02
2023-05-06T06:28:40.099Z,12.10
2023-05-06T06:31:07.969Z,11.50
2023-05-06T06:33:35.832Z,11.38
2023-05-06T06:36:03.949Z,11.82
2023-05-06T06:38:32.546Z,10.75
2023-05-06T06:41:00.488Z,11.68
2023-05-06T06:43:29.707Z,11.52
2023-05-06T06:46:01.280Z,10.75
2023-05-06T06:48:29.487Z,10.70
2023-05-06T06:50:57.446Z,10.55
2023-05-06T06:53:26.656Z,10.77
2023-05-06T06:55:54.557Z,10.77
2023-05-06T06:58:22.993Z,12.25
2023-05-06T07:00:52.426Z,11.48
2023-05-06T07:03:20.490Z,9.98
2023-05-06T07:05:48.349Z,10.25
2023-05-06T07:08:17.282Z,9.25
2023-05-06T07:10:45.583Z,9.63
2023-05-06T07:13:13.769Z,9.93
2023-05-06T07:15:41.931Z,10.10
2023-05-06T07:18:11.933Z,9.95
2023-05-06T07:20:40.107Z,14.73
2023-05-06T07:23:08.047Z,9.25
2023-05-06T07:25:38.222Z,9.65
2023-05-06T07:28:06.419Z,9.05
2023-05-06T07:30:34.285Z,8.38
2023-05-06T07:33:03.534Z,8.57
2023-05-06T07:35:33.054Z,7.65
2023-05-06T07:38:00.864Z,7.70
2023-05-06T07:40:28.945Z,7.72
2023-05-06T07:42:56.802Z,7.20
2023-05-06T07:45:25.214Z,7.18
2023-05-06T07:47:53.179Z,7.45
2023-05-06T07:50:21.151Z,7.85
2023-05-06T07:52:50.354Z,7.30
2023-05-06T07:55:18.230Z,8.52
2023-05-06T07:57:46.119Z,7.30
2023-05-06T08:00:15.947Z,8.85
2023-05-06T08:02:45.023Z,8.73
2023-05-06T08:05:13.464Z,7.72
2023-05-06T08:07:41.695Z,6.95
2023-05-06T08:10:11.416Z,8.50
2023-05-06T08:12:39.209Z,7.75
2023-05-06T08:15:07.605Z,6.65
2023-05-06T08:17:35.871Z,7.20
2023-05-06T08:20:03.682Z,7.68
2023-05-06T08:22:32.784Z,7.45
2023-05-06T08:25:01.363Z,6.40
2023-05-06T08:27:31.603Z,6.97
2023-05-06T08:29:59.561Z,7.03
2023-05-06T08:32:28.185Z,7.38
2023-05-06T08:34:56.221Z,8.52
2023-05-06T08:37:24.097Z,7.68
2023-05-06T08:39:51.959Z,7.55
2023-05-06T08:42:20.418Z,6.95
2023-05-06T08:44:50.756Z,7.53
2023-05-06T08:47:19.359Z,6.78
2023-05-06T08:49:47.214Z,7.22
2023-05-06T08:52:15.168Z,7.47
2023-05-06T08:54:45.120Z,6.45
2023-05-06T08:57:13.306Z,6.53
2023-05-06T08:59:41.317Z,6.18
2023-05-06T09:02:12.291Z,6.70
2023-05-06T09:04:41.373Z,6.95
2023-05-06T09:07:09.271Z,7.35
2023-05-06T09:09:37.199Z,9.10
2023-05-06T09:12:07.102Z,5.25
2023-05-06T09:14:36.292Z,5.60
2023-05-06T09:17:04.250Z,5.07
2023-05-06T09:19:39.003Z,6.35
2023-05-06T09:24:37.342Z,6.00
2023-05-06T09:27:05.213Z,5.43
2023-05-06T09:29:33.098Z,5.90
2023-05-06T09:32:06.016Z,5.18
2023-05-06T09:34:35.914Z,5.60
2023-05-06T09:37:03.776Z,5.15
2023-05-06T09:39:34.258Z,5.10
2023-05-06T09:42:02.342Z,5.45
2023-05-06T09:44:31.062Z,5.45
2023-05-06T09:46:58.937Z,5.43
2023-05-06T09:49:27.488Z,4.70
2023-05-06T09:51:57.670Z,4.45
2023-05-06T09:54:26.577Z,3.20
2023-05-06T09:56:56.209Z,3.47
2023-05-06T09:59:26.009Z,3.50
2023-05-06T10:01:55.093Z,4.70
2023-05-06T10:04:26.237Z,4.38
2023-05-06T10:06:56.732Z,4.35
2023-05-06T10:09:25.581Z,4.60
2023-05-06T10:11:54.655Z,4.43
2023-05-06T10:14:22.645Z,5.75
2023-05-06T10:16:50.937Z,4.80
2023-05-06T10:19:20.207Z,4.35
2023-05-06T10:21:50.919Z,3.85
2023-05-06T10:24:24.794Z,3.60
2023-05-06T10:26:56.346Z,4.20
2023-05-06T10:29:26.085Z,3.40
2023-05-06T10:31:57.099Z,3.78
2023-05-06T10:34:26.361Z,4.00
2023-05-06T10:36:57.591Z,3.53
2023-05-06T10:39:29.079Z,4.00
2023-05-06T10:41:57.734Z,4.28
2023-05-06T10:44:41.320Z,3.90
2023-05-06T10:47:09.512Z,3.65
2023-05-06T10:49:37.330Z,3.67
2023-05-06T10:52:13.330Z,3.53
2023-05-06T10:54:52.730Z,3.22
2023-05-06T10:57:22.658Z,2.20
2023-05-06T10:59:50.589Z,2.63
2023-05-06T11:02:19.887Z,3.15
2023-05-06T11:04:53.300Z,2.35
2023-05-06T11:07:25.975Z,2.72
2023-05-06T11:09:59.395Z,2.65
2023-05-06T11:12:47.135Z,2.38
2023-05-06T11:15:36.455Z,2.83
2023-05-06T11:18:32.082Z,2.30
2023-05-06T11:21:17.640Z,2.55
2023-05-06T11:24:05.301Z,2.45
2023-05-06T11:26:35.218Z,3.15
2023-05-06T11:29:04.263Z,3.40
2023-05-06T11:31:38.665Z,3.83
2023-05-06T11:34:11.605Z,3.40
2023-05-06T11:36:46.914Z,4.68
2023-05-06T11:39:16.472Z,3.08
2023-05-06T11:41:45.935Z,2.50
2023-05-06T11:44:27.088Z,3.00
2023-05-06T11:46:58.238Z,2.50
2023-05-06T11:49:26.950Z,2.40
2023-05-06T11:51:54.937Z,2.50
2023-05-06T11:54:23.123Z,1.98
2023-05-06T11:56:53.235Z,2.30
2023-05-06T11:59:27.903Z,2.30
2023-05-06T12:01:57.759Z,3.15
2023-05-06T12:04:25.903Z,1.83
2023-05-06T12:06:55.811Z,1.75
2023-05-06T12:09:25.121Z,1.80
2023-05-06T12:11:55.065Z,2.17
2023-05-06T12:14:23.042Z,2.22
2023-05-06T12:16:50.984Z,2.45
2023-05-06T12:19:19.043Z,1.73
2023-05-06T12:21:47.441Z,1.55
2023-05-06T12:24:15.706Z,1.60
2023-05-06T12:26:45.209Z,1.30
2023-05-06T12:29:17.810Z,1.40
2023-05-06T12:31:47.216Z,1.27
2023-05-06T12:34:16.149Z,1.50
2023-05-06T12:36:44.806Z,1.23
2023-05-06T12:39:13.566Z,1.50
2023-05-06T12:41:42.842Z,1.45
2023-05-06T12:44:29.277Z,1.15
2023-05-06T12:46:58.554Z,1.30
2023-05-06T12:49:26.475Z,1.17
2023-05-06T12:52:07.506Z,2.10
2023-05-06T12:54:35.400Z,1.40
2023-05-06T12:57:03.330Z,1.67
2023-05-06T12:59:31.787Z,2.90
2023-05-06T13:02:02.467Z,1.17
2023-05-06T13:04:32.748Z,1.40
2023-05-06T13:07:00.982Z,1.60
2023-05-06T13:09:28.847Z,1.10
2023-05-06T13:11:57.776Z,1.17
2023-05-06T13:14:26.400Z,1.00
2023-05-06T13:16:54.489Z,1.10
2023-05-06T13:19:32.456Z,1.20
2023-05-06T13:22:02.829Z,2.22
2023-05-06T13:24:31.019Z,2.22
2023-05-06T13:27:00.851Z,1.38
2023-05-06T13:29:29.671Z,1.35
2023-05-06T13:31:58.212Z,1.00
2023-05-06T13:34:28.123Z,1.90
2023-05-06T13:36:56.620Z,1.70
2023-05-06T13:39:27.643Z,1.30
2023-05-06T13:41:55.473Z,1.17
2023-05-06T13:44:24.591Z,1.60
2023-05-06T13:46:52.504Z,1.50
2023-05-06T13:49:20.625Z,1.50
2023-05-06T13:51:49.987Z,1.45
2023-05-06T13:54:18.345Z,1.75
2023-05-06T13:56:46.245Z,1.90
2023-05-06T13:59:14.119Z,1.70
2023-05-06T14:01:42.687Z,2.30
2023-05-06T14:04:10.645Z,1.45
2023-05-06T14:06:38.862Z,1.45
2023-05-06T14:09:09.849Z,1.27
2023-05-06T14:11:37.740Z,1.77
2023-05-06T14:14:06.391Z,1.35
2023-05-06T14:16:34.448Z,1.10
2023-05-06T14:19:02.302Z,1.55
2023-05-06T14:21:30.220Z,1.17
2023-05-06T14:23:58.603Z,1.30
2023-05-06T14:26:28.102Z,1.40
2023-05-06T14:28:56.711Z,1.30
2023-05-06T14:31:24.581Z,0.95
2023-05-06T14:33:52.401Z,1.20
2023-05-06T14:36:20.774Z,1.35
2023-05-06T14:38:48.636Z,1.40
2023-05-06T14:41:16.550Z,1.23
2023-05-06T14:43:45.725Z,1.50
2023-05-06T14:46:14.886Z,2.40
2023-05-06T14:48:43.741Z,0.90
2023-05-06T14:51:12.374Z,1.17
2023-05-06T14:53:40.382Z,1.10
2023-05-06T14:56:08.912Z,1.20
2023-05-06T14:58:39.206Z,1.00
2023-05-06T15:01:09.770Z,1.88
2023-05-06T15:03:39.482Z,1.40
2023-05-06T15:06:07.656Z,1.30
2023-05-06T15:08:36.114Z,2.10
2023-05-06T15:11:05.507Z,4.15
2023-05-06T15:13:33.723Z,1.10
2023-05-06T15:16:02.111Z,2.10
2023-05-06T15:18:31.479Z,1.13
2023-05-06T15:21:02.786Z,4.05
2023-05-06T15:23:31.791Z,1.27
2023-05-06T15:25:59.922Z,3.45
2023-05-06T15:28:28.344Z,40.47
2023-05-06T15:30:56.317Z,45.92
2023-05-06T15:33:24.276Z,10.90
2023-05-06T15:35:53.725Z,4.00
2023-05-06T15:38:22.126Z,13.18
2023-05-06T15:40:51.383Z,14.68
2023-05-06T15:43:23.723Z,15.32
2023-05-06T15:45:53.680Z,14.18
2023-05-06T15:48:21.704Z,1.63
2023-05-06T15:50:49.697Z,1.38
2023-05-06T15:53:19.966Z,2.05
2023-05-06T15:55:56.192Z,1.58
2023-05-06T15:58:25.945Z,1.23
2023-05-06T16:00:54.373Z,1.45
2023-05-06T16:03:23.971Z,2.00
2023-05-06T16:05:53.740Z,1.20
2023-05-06T16:08:23.730Z,1.10
2023-05-06T16:10:52.212Z,1.50
2023-05-06T16:13:21.178Z,1.35
2023-05-06T16:15:50.015Z,1.33
2023-05-06T16:18:19.817Z,1.50
2023-05-06T16:20:50.153Z,1.50
2023-05-06T16:23:18.277Z,1.15
2023-05-06T16:25:47.451Z,1.40
2023-05-06T16:28:15.411Z,1.17
2023-05-06T16:30:44.905Z,2.00
2023-05-06T16:33:14.558Z,10.73
2023-05-06T16:35:42.520Z,15.60
2023-05-06T16:38:10.296Z,23.38
2023-05-06T16:40:41.685Z,15.90
2023-05-06T16:43:13.482Z,17.90
2023-05-06T16:45:45.743Z,13.98
2023-05-06T16:48:15.924Z,10.40
2023-05-06T16:50:45.661Z,12.38
2023-05-06T16:53:15.942Z,43.20
2023-05-06T16:55:46.958Z,23.30
2023-05-06T16:58:16.549Z,20.83
2023-05-06T17:00:44.510Z,4.68
2023-05-06T17:03:12.560Z,2.90
2023-05-06T17:05:41.127Z,2.58
2023-05-06T17:08:10.648Z,2.25
2023-05-06T17:10:38.716Z,1.92
2023-05-06T17:13:06.662Z,2.10
2023-05-06T17:15:36.538Z,1.92
2023-05-06T17:18:04.826Z,2.30
2023-05-06T17:20:40.711Z,5.32
2023-05-06T17:23:15.894Z,1.95
2023-05-06T17:25:44.167Z,2.50
2023-05-06T17:28:12.145Z,2.30
2023-05-06T17:30:43.022Z,2.47
2023-05-06T17:33:12.846Z,2.10
2023-05-06T17:35:40.833Z,2.83
2023-05-06T17:38:08.912Z,2.97
2023-05-06T17:40:36.887Z,3.60
2023-05-06T17:43:06.783Z,2.53
2023-05-06T17:45:34.692Z,3.20
2023-05-06T17:48:06.077Z,3.50
2023-05-06T17:50:34.051Z,3.55
2023-05-06T17:53:04.180Z,3.58
2023-05-06T17:55:33.926Z,7.43
2023-05-06T17:58:02.048Z,4.97
2023-05-06T18:00:30.067Z,4.88
2023-05-06T18:02:57.894Z,5.90
2023-05-06T18:05:28.570Z,5.68
2023-05-06T18:07:56.463Z,4.65
2023-05-06T18:10:24.336Z,5.10
2023-05-06T18:12:52.878Z,4.25
2023-05-06T18:15:21.109Z,4.30
2023-05-06T18:17:49.046Z,3.92
2023-05-06T18:20:17.037Z,3.60
2023-05-06T18:22:46.491Z,3.80
2023-05-06T18:25:14.424Z,5.85
2023-05-06T18:27:42.430Z,7.10
2023-05-06T18:30:10.699Z,5.00
2023-05-06T18:32:38.548Z,5.53
2023-05-06T18:35:06.769Z,10.07
2023-05-06T18:37:34.632Z,6.40
2023-05-06T18:40:05.882Z,6.63
2023-05-06T18:42:35.291Z,7.38
2023-05-06T18:45:04.583Z,7.35
2023-05-06T18:47:32.696Z,11.25
2023-05-06T18:50:00.802Z,8.85
2023-05-06T18:52:28.745Z,8.05
2023-05-06T18:54:56.670Z,7.90
2023-05-06T18:57:27.141Z,7.40
2023-05-06T18:59:54.972Z,6.72
2023-05-06T19:02:22.886Z,7.22
2023-05-06T19:04:50.820Z,6.65
2023-05-06T19:07:18.661Z,6.57
2023-05-06T19:09:46.916Z,6.15
2023-05-06T19:12:15.189Z,7.93
2023-05-06T19:14:46.227Z,10.88
2023-05-06T19:17:16.125Z,10.80
2023-05-06T19:19:46.971Z,8.93
2023-05-06T19:22:15.557Z,9.95
2023-05-06T19:24:43.336Z,16.08
2023-05-06T19:27:12.075Z,9.98
2023-05-06T19:29:40.245Z,7.75
2023-05-06T19:32:09.609Z,6.75
2023-05-06T19:34:37.460Z,8.60
2023-05-06T19:37:05.367Z,9.20
2023-05-06T19:39:33.254Z,8.77
2023-05-06T19:42:01.262Z,12.07
2023-05-06T19:44:31.611Z,10.02
2023-05-06T19:47:00.078Z,7.03
2023-05-06T19:49:30.513Z,8.05
2023-05-06T19:52:00.307Z,6.72
2023-05-06T19:54:28.172Z,5.25
2023-05-06T19:56:57.143Z,4.68
2023-05-06T19:59:25.587Z,5.30
2023-05-06T20:01:54.741Z,5.82
2023-05-06T20:04:24.260Z,5.55
2023-05-06T20:06:53.446Z,7.70
2023-05-06T20:09:22.622Z,7.35
2023-05-06T20:11:51.484Z,8.60
2023-05-06T20:14:19.312Z,7.03
2023-05-06T20:16:47.505Z,6.85
2023-05-06T20:19:17.828Z,7.68
2023-05-06T20:21:48.103Z,7.43
2023-05-06T20:24:18.099Z,7.28
2023-05-06T20:26:46.187Z,8.68
2023-05-06T20:29:14.230Z,8.60
2023-05-06T20:31:42.188Z,7.50
2023-05-06T20:34:10.057Z,7.40
2023-05-06T20:36:38.138Z,8.05
2023-05-06T20:39:06.070Z,7.65
2023-05-06T20:41:38.327Z,8.50
2023-05-06T20:44:06.233Z,10.10
2023-05-06T20:46:34.519Z,9.57
2023-05-06T20:49:03.975Z,8.80
2023-05-06T20:51:32.457Z,8.38
2023-05-06T20:54:01.093Z,7.60
2023-05-06T20:56:29.993Z,7.15
2023-05-06T20:58:59.454Z,8.18
2023-05-06T21:01:28.216Z,7.40
2023-05-06T21:03:56.376Z,6.70
2023-05-06T21:06:24.489Z,6.75
2023-05-06T21:08:53.162Z,6.40
2023-05-06T21:11:21.152Z,6.53
2023-05-06T21:13:50.211Z,6.55
2023-05-06T21:16:20.002Z,7.47
2023-05-06T21:18:48.086Z,9.35
2023-05-06T21:21:16.085Z,11.50
2023-05-06T21:23:43.917Z,12.23
2023-05-06T21:26:12.062Z,11.88
2023-05-06T21:28:40.073Z,11.38
2023-05-06T21:31:08.070Z,11.15
2023-05-06T21:33:37.231Z,10.65
2023-05-06T21:36:05.347Z,9.68
2023-05-06T21:38:33.315Z,10.15
2023-05-06T21:41:01.323Z,10.75
2023-05-06T21:43:31.266Z,11.05
2023-05-06T21:46:00.995Z,10.30
2023-05-06T21:48:29.126Z,9.70
2023-05-06T21:51:00.335Z,9.23
2023-05-06T21:53:30.349Z,10.10
2023-05-06T21:55:58.169Z,8.60
2023-05-06T21:58:25.970Z,9.10
2023-05-06T22:00:53.878Z,8.48
2023-05-06T22:03:21.782Z,9.00
2023-05-06T22:05:49.871Z,8.75
2023-05-06T22:08:19.454Z,8.07
2023-05-06T22:10:47.376Z,9.88
2023-05-06T22:13:15.597Z,9.13
2023-05-06T22:15:43.681Z,8.43
2023-05-06T22:18:11.696Z,9.13
2023-05-06T22:20:41.667Z,9.32
2023-05-06T22:23:09.496Z,9.85
2023-05-06T22:25:38.711Z,9.65
2023-05-06T22:28:06.775Z,9.23
2023-05-06T22:30:34.615Z,9.68
2023-05-06T22:33:02.492Z,9.30
2023-05-06T22:35:30.403Z,9.40
2023-05-06T22:37:58.212Z,9.00
2023-05-06T22:40:27.775Z,10.10
2023-05-06T22:42:56.998Z,9.70
2023-05-06T22:45:24.807Z,9.68
2023-05-06T22:47:52.814Z,10.32
2023-05-06T22:50:21.179Z,10.02
2023-05-06T22:52:49.061Z,10.15
2023-05-06T22:55:17.048Z,10.30
2023-05-06T22:57:45.036Z,9.93
2023-05-06T23:00:14.659Z,10.50
2023-05-06T23:02:42.510Z,10.73
2023-05-06T23:05:10.612Z,11.18
2023-05-06T23:07:39.025Z,10.82
2023-05-06T23:10:07.358Z,11.93
2023-05-06T23:12:35.353Z,10.23
2023-05-06T23:15:03.543Z,10.88
2023-05-06T23:17:33.852Z,10.25
2023-05-06T23:20:02.007Z,10.55
2023-05-06T23:22:29.950Z,10.60
2023-05-06T23:24:57.753Z,10.15
2023-05-06T23:27:26.120Z,11.98
2023-05-06T23:29:54.008Z,11.10
2023-05-06T23:32:21.851Z,10.65
2023-05-06T23:34:52.487Z,10.88
2023-05-06T23:37:20.426Z,10.93
2023-05-06T23:39:48.557Z,11.75
2023-05-06T23:42:16.433Z,10.35
2023-05-06T23:44:44.284Z,11.18
2023-05-06T23:47:12.151Z,11.65
2023-05-06T23:49:39.983Z,12.23
2023-05-06T23:52:09.366Z,12.45
2023-05-06T23:54:37.287Z,13.10
2023-05-06T23:57:05.587Z,12.52
2023-05-06T23:59:33.651Z,13.15
